createdAt,value
2017-04-05T00:00:00.569Z,85.19
2017-04-05T00:01:00.883Z,84.33
2017-04-05T00:02:00.846Z,84.72
2017-04-05T00:03:00.505Z,84.62
2017-04-05T00:04:00.798Z,84.72
2017-04-05T00:05:00.793Z,84.81
2017-04-05T00:06:00.763Z,84.33
2017-04-05T00:07:00.733Z,84.62
2017-04-05T00:08:00.722Z,84.52
2017-04-05T00:09:00.702Z,84.52
2017-04-05T00:10:00.681Z,84.33
2017-04-05T00:11:00.353Z,84.43
2017-04-05T00:12:00.642Z,84.43
2017-04-05T00:13:00.631Z,85
2017-04-05T00:14:00.615Z,84.81
2017-04-05T00:15:00.593Z,84.52
2017-04-05T00:16:00.266Z,84.62
2017-04-05T00:17:00.243Z,84.62
2017-04-05T00:18:00.224Z,84.52
2017-04-05T00:19:00.523Z,84.33
2017-04-05T00:20:00.491Z,84.52
2017-04-05T00:21:00.474Z,84.29
2017-04-05T00:22:00.478Z,84.2
2017-04-05T00:23:00.442Z,84.1
2017-04-05T00:24:00.412Z,84.72
2017-04-05T00:25:00.412Z,84.86
2017-04-05T00:26:00.380Z,84.39
2017-04-05T00:27:00.383Z,84.67
2017-04-05T00:28:00.346Z,84.58
2017-04-05T00:29:00.322Z,84.52
2017-04-05T00:29:59.992Z,85.05
2017-04-05T00:30:59.976Z,85.34
2017-04-05T00:32:00.262Z,85.91
2017-04-05T00:33:00.243Z,85.53
2017-04-05T00:34:00.226Z,85.82
2017-04-05T00:35:00.204Z,85.91
2017-04-05T00:36:00.195Z,86.49
2017-04-05T00:37:00.174Z,86.3
2017-04-05T00:38:00.150Z,86.1
2017-04-05T00:39:00.138Z,85.53
2017-04-05T00:40:00.113Z,85.91
2017-04-05T00:40:59.783Z,85.91
2017-04-05T00:42:00.067Z,85.91
2017-04-05T00:42:59.748Z,86.01
2017-04-05T00:43:59.732Z,85.63
2017-04-05T00:45:00.011Z,85.72
2017-04-05T00:45:59.992Z,85.72
2017-04-05T00:46:59.665Z,85.91
2017-04-05T00:47:59.652Z,85.91
2017-04-05T00:48:59.935Z,85.72
2017-04-05T00:49:59.921Z,86.01
2017-04-05T00:50:59.892Z,86.1
2017-04-05T00:51:59.874Z,85.72
2017-04-05T00:52:59.852Z,86.1
2017-04-05T00:53:59.530Z,85.63
2017-04-05T00:54:59.825Z,85.72
2017-04-05T00:55:59.812Z,85.91
2017-04-05T00:56:59.772Z,86.06
2017-04-05T00:57:59.768Z,85.97
2017-04-05T00:58:59.744Z,85.63
2017-04-05T00:59:59.722Z,85.72
2017-04-05T01:00:59.392Z,85.34
2017-04-05T01:01:59.379Z,85.68
2017-04-05T01:02:59.351Z,85.82
2017-04-05T01:03:59.334Z,85.44
2017-04-05T01:04:59.701Z,85.53
2017-04-05T01:05:59.301Z,85.34
2017-04-05T01:06:59.275Z,85.11
2017-04-05T01:07:59.589Z,85.3
2017-04-05T01:08:59.232Z,84.86
2017-04-05T01:09:59.521Z,84.96
2017-04-05T01:10:59.202Z,85.53
2017-04-05T01:11:59.495Z,85.44
2017-04-05T01:12:59.162Z,85.44
2017-04-05T01:13:59.139Z,85.39
2017-04-05T01:14:59.433Z,85.49
2017-04-05T01:15:59.409Z,85.39
2017-04-05T01:16:59.081Z,85.34
2017-04-05T01:17:59.371Z,85.34
2017-04-05T01:18:59.356Z,85.34
2017-04-05T01:19:59.322Z,85.05
2017-04-05T01:20:59.377Z,85.01
2017-04-05T01:21:58.992Z,85.05
2017-04-05T01:22:59.270Z,84.92
2017-04-05T01:23:59.251Z,84.92
2017-04-05T01:24:59.230Z,85.39
2017-04-05T01:25:58.911Z,85.11
2017-04-05T01:26:59.277Z,85.11
2017-04-05T01:27:59.171Z,85.39
2017-04-05T01:28:59.152Z,85.77
2017-04-05T01:29:58.828Z,85.3
2017-04-05T01:30:59.110Z,85.39
2017-04-05T01:31:59.091Z,85.39
2017-04-05T01:32:58.770Z,85.3
2017-04-05T01:33:58.752Z,85.58
2017-04-05T01:34:58.721Z,85.49
2017-04-05T01:35:59.026Z,85.97
2017-04-05T01:36:59.001Z,85.87
2017-04-05T01:37:58.986Z,86.54
2017-04-05T01:38:58.956Z,85.97
2017-04-05T01:39:58.942Z,86.06
2017-04-05T01:40:58.927Z,85.97
2017-04-05T01:41:58.899Z,86.44
2017-04-05T01:42:58.944Z,86.54
2017-04-05T01:43:58.861Z,86.44
2017-04-05T01:44:58.842Z,86.54
2017-04-05T01:45:58.513Z,86.44
2017-04-05T01:46:58.822Z,86.06
2017-04-05T01:47:58.781Z,86.63
2017-04-05T01:48:58.762Z,86.35
2017-04-05T01:49:58.741Z,86.44
2017-04-05T01:50:58.412Z,86.59
2017-04-05T01:51:58.393Z,86.44
2017-04-05T01:52:58.681Z,86.25
2017-04-05T01:53:58.664Z,86.63
2017-04-05T01:54:58.333Z,86.73
2017-04-05T01:55:58.622Z,86.35
2017-04-05T01:56:58.616Z,86.44
2017-04-05T01:57:58.592Z,86.63
2017-04-05T01:58:58.554Z,86.73
2017-04-05T01:59:58.547Z,87.21
2017-04-05T02:00:58.531Z,87.3
2017-04-05T02:01:58.514Z,87.21
2017-04-05T02:02:58.483Z,87.3
2017-04-05T02:03:58.464Z,87.3
2017-04-05T02:04:58.446Z,87.21
2017-04-05T02:05:58.121Z,86.82
2017-04-05T02:06:58.110Z,87.4
2017-04-05T02:07:58.381Z,87.4
2017-04-05T02:08:58.369Z,87.49
2017-04-05T02:09:58.352Z,87.93
2017-04-05T02:10:58.334Z,87.74
2017-04-05T02:11:58.004Z,88.02
2017-04-05T02:12:58.291Z,87.54
2017-04-05T02:13:58.281Z,88.07
2017-04-05T02:14:58.253Z,88.02
2017-04-05T02:15:58.232Z,87.74
2017-04-05T02:16:58.206Z,88.02
2017-04-05T02:17:58.182Z,87.59
2017-04-05T02:18:58.172Z,88.16
2017-04-05T02:19:58.140Z,88.16
2017-04-05T02:20:58.133Z,88.54
2017-04-05T02:21:58.120Z,88.26
2017-04-05T02:22:58.092Z,88.54
2017-04-05T02:23:58.078Z,88.64
2017-04-05T02:24:57.743Z,88.26
2017-04-05T02:25:58.022Z,88.35
2017-04-05T02:26:58.011Z,88.78
2017-04-05T02:27:57.997Z,88.73
2017-04-05T02:28:57.662Z,88.5
2017-04-05T02:29:57.954Z,88.92
2017-04-05T02:30:57.922Z,88.73
2017-04-05T02:31:57.910Z,89.07
2017-04-05T02:32:57.901Z,89.02
2017-04-05T02:33:57.876Z,89.02
2017-04-05T02:34:57.858Z,88.73
2017-04-05T02:35:57.833Z,89.12
2017-04-05T02:36:57.504Z,88.88
2017-04-05T02:37:57.813Z,89.45
2017-04-05T02:38:57.762Z,89.31
2017-04-05T02:39:57.754Z,89.36
2017-04-05T02:40:57.415Z,89.17
2017-04-05T02:41:57.714Z,89.74
2017-04-05T02:42:57.695Z,89.74
2017-04-05T02:43:57.666Z,89.93
2017-04-05T02:44:57.343Z,89.93
2017-04-05T02:45:57.641Z,90.03
2017-04-05T02:46:57.301Z,90.03
2017-04-05T02:47:57.594Z,89.36
2017-04-05T02:48:57.635Z,89.45
2017-04-05T02:49:57.602Z,89.45
2017-04-05T02:50:57.538Z,89.26
2017-04-05T02:51:57.256Z,89.54
2017-04-05T02:52:57.545Z,90.31
2017-04-05T02:53:57.471Z,90.41
2017-04-05T02:54:57.453Z,90.59
2017-04-05T02:55:57.450Z,90.59
2017-04-05T02:56:57.103Z,91.17
2017-04-05T02:57:57.383Z,91.46
2017-04-05T02:58:57.362Z,91.64
2017-04-05T02:59:57.351Z,91.83
2017-04-05T03:00:57.452Z,91.74
2017-04-05T03:01:57.316Z,92.22
2017-04-05T03:02:57.290Z,92.03
2017-04-05T03:03:57.275Z,91.55
2017-04-05T03:04:57.250Z,91.93
2017-04-05T03:05:57.225Z,92.03
2017-04-05T03:06:57.212Z,92.12
2017-04-05T03:07:56.885Z,92.41
2017-04-05T03:08:57.172Z,92.03
2017-04-05T03:09:56.844Z,92.03
2017-04-05T03:10:57.183Z,92.22
2017-04-05T03:11:57.103Z,92.6
2017-04-05T03:12:57.094Z,92.69
2017-04-05T03:13:57.074Z,92.46
2017-04-05T03:14:57.110Z,92.93
2017-04-05T03:15:57.022Z,93.12
2017-04-05T03:16:57.008Z,93.03
2017-04-05T03:17:56.986Z,93.22
2017-04-05T03:18:56.660Z,93.12
2017-04-05T03:19:56.633Z,93.22
2017-04-05T03:20:56.631Z,93.32
2017-04-05T03:21:56.903Z,93.32
2017-04-05T03:22:56.925Z,93.6
2017-04-05T03:23:56.553Z,93.6
2017-04-05T03:24:56.844Z,93.79
2017-04-05T03:25:56.822Z,93.12
2017-04-05T03:26:56.810Z,93.22
2017-04-05T03:27:56.782Z,93.32
2017-04-05T03:28:56.765Z,93.32
2017-04-05T03:29:56.432Z,93.22
2017-04-05T03:30:56.742Z,93.22
2017-04-05T03:31:56.702Z,92.84
2017-04-05T03:32:56.682Z,92.46
2017-04-05T03:33:56.352Z,93.22
2017-04-05T03:34:56.645Z,93.12
2017-04-05T03:35:56.321Z,93.12
2017-04-05T03:36:56.296Z,93.12
2017-04-05T03:37:56.274Z,93.88
2017-04-05T03:38:56.563Z,93.88
2017-04-05T03:39:56.534Z,93.84
2017-04-05T03:40:56.524Z,93.22
2017-04-05T03:41:56.502Z,93.51
2017-04-05T03:42:56.470Z,93.41
2017-04-05T03:43:56.154Z,93.12
2017-04-05T03:44:56.121Z,93.7
2017-04-05T03:45:56.102Z,93.79
2017-04-05T03:46:56.084Z,93.88
2017-04-05T03:47:56.062Z,93.7
2017-04-05T03:48:56.047Z,93.12
2017-04-05T03:49:56.031Z,93.12
2017-04-05T03:50:56.312Z,93.12
2017-04-05T03:51:56.303Z,93.32
2017-04-05T03:52:55.961Z,93.84
2017-04-05T03:53:56.259Z,94.03
2017-04-05T03:54:56.235Z,94.7
2017-04-05T03:55:56.222Z,94.7
2017-04-05T03:56:55.882Z,94.89
2017-04-05T03:57:55.914Z,94.79
2017-04-05T03:58:56.147Z,95.17
2017-04-05T03:59:55.895Z,94.41
2017-04-05T04:00:55.807Z,95.27
2017-04-05T04:01:56.145Z,95.08
2017-04-05T04:02:56.062Z,95.08
2017-04-05T04:03:56.084Z,94.89
2017-04-05T04:04:56.021Z,95.36
2017-04-05T04:05:56.043Z,95.08
2017-04-05T04:06:55.983Z,94.79
2017-04-05T04:07:56.022Z,94.79
2017-04-05T04:08:55.643Z,94.6
2017-04-05T04:09:55.618Z,94.51
2017-04-05T04:10:55.894Z,94.22
2017-04-05T04:11:55.895Z,94.22
2017-04-05T04:12:55.862Z,94.6
2017-04-05T04:13:55.535Z,94.13
2017-04-05T04:14:55.813Z,93.55
2017-04-05T04:15:55.822Z,93.74
2017-04-05T04:16:55.777Z,93.74
2017-04-05T04:17:55.834Z,93.74
2017-04-05T04:18:55.792Z,93.55
2017-04-05T04:19:55.792Z,93.84
2017-04-05T04:20:55.700Z,94.13
2017-04-05T04:21:55.682Z,94.13
2017-04-05T04:22:55.343Z,94.41
2017-04-05T04:23:55.325Z,94.32
2017-04-05T04:24:55.614Z,94.41
2017-04-05T04:25:55.603Z,94.7
2017-04-05T04:26:55.580Z,94.41
2017-04-05T04:27:55.552Z,94.6
2017-04-05T04:28:55.629Z,93.65
2017-04-05T04:29:55.523Z,93.74
2017-04-05T04:30:55.480Z,93.65
2017-04-05T04:31:55.474Z,93.84
2017-04-05T04:32:55.554Z,93.74
2017-04-05T04:33:55.432Z,93.74
2017-04-05T04:34:55.413Z,93.74
2017-04-05T04:35:55.384Z,93.27
2017-04-05T04:36:55.373Z,93.37
2017-04-05T04:37:55.462Z,93.37
2017-04-05T04:38:55.322Z,93.27
2017-04-05T04:39:55.303Z,93.37
2017-04-05T04:40:55.285Z,93.55
2017-04-05T04:41:55.273Z,93.55
2017-04-05T04:42:55.243Z,93.74
2017-04-05T04:43:55.321Z,93.27
2017-04-05T04:44:55.214Z,93.55
2017-04-05T04:45:54.921Z,93.37
2017-04-05T04:46:54.846Z,93.17
2017-04-05T04:47:55.134Z,93.46
2017-04-05T04:48:55.111Z,93.37
2017-04-05T04:49:55.085Z,93.65
2017-04-05T04:50:55.066Z,93.55
2017-04-05T04:51:55.041Z,93.46
2017-04-05T04:52:55.025Z,93.55
2017-04-05T04:53:54.694Z,93.46
2017-04-05T04:54:54.982Z,93.27
2017-04-05T04:55:54.659Z,93.74
2017-04-05T04:56:54.940Z,93.74
2017-04-05T04:57:54.923Z,93.74
2017-04-05T04:58:54.912Z,93.84
2017-04-05T04:59:54.883Z,93.55
2017-04-05T05:00:54.861Z,93.84
2017-04-05T05:01:54.832Z,93.74
2017-04-05T05:02:54.824Z,93.65
2017-04-05T05:03:54.791Z,93.74
2017-04-05T05:04:54.773Z,93.55
2017-04-05T05:05:54.448Z,93.74
2017-04-05T05:06:54.731Z,94.13
2017-04-05T05:07:54.404Z,93.93
2017-04-05T05:08:54.391Z,93.84
2017-04-05T05:09:54.670Z,93.93
2017-04-05T05:10:54.346Z,94.03
2017-04-05T05:11:54.322Z,94.22
2017-04-05T05:12:54.313Z,94.22
2017-04-05T05:13:54.590Z,94.13
2017-04-05T05:14:54.562Z,93.74
2017-04-05T05:15:54.562Z,93.74
2017-04-05T05:16:54.529Z,93.37
2017-04-05T05:17:54.512Z,93.6
2017-04-05T05:18:54.181Z,93.7
2017-04-05T05:19:54.462Z,93.03
2017-04-05T05:20:54.443Z,93.51
2017-04-05T05:21:54.115Z,93.22
2017-04-05T05:22:54.403Z,93.22
2017-04-05T05:23:54.391Z,93.79
2017-04-05T05:24:54.054Z,93.79
2017-04-05T05:25:54.343Z,94.56
2017-04-05T05:26:54.022Z,94.56
2017-04-05T05:27:53.992Z,94.17
2017-04-05T05:28:54.298Z,94.17
2017-04-05T05:29:53.952Z,94.74
2017-04-05T05:30:54.244Z,94.7
2017-04-05T05:31:54.229Z,94.7
2017-04-05T05:32:54.196Z,94.51
2017-04-05T05:33:53.871Z,94.46
2017-04-05T05:34:54.158Z,94.17
2017-04-05T05:35:54.134Z,94.08
2017-04-05T05:36:53.812Z,94.17
2017-04-05T05:37:53.803Z,94.46
2017-04-05T05:38:53.791Z,94.46
2017-04-05T05:39:53.802Z,93.79
2017-04-05T05:40:53.734Z,93.79
2017-04-05T05:41:53.804Z,93.7
2017-04-05T05:42:53.994Z,93.41
2017-04-05T05:43:53.971Z,93.03
2017-04-05T05:44:53.953Z,93.32
2017-04-05T05:45:53.630Z,93.6
2017-04-05T05:46:53.920Z,93.32
2017-04-05T05:47:53.691Z,93.7
2017-04-05T05:48:53.873Z,92.93
2017-04-05T05:49:53.652Z,93.79
2017-04-05T05:50:53.843Z,93.98
2017-04-05T05:51:53.503Z,93.32
2017-04-05T05:52:53.790Z,93.22
2017-04-05T05:53:53.582Z,93.79
2017-04-05T05:54:53.749Z,93.7
2017-04-05T05:55:53.523Z,93.6
2017-04-05T05:56:53.714Z,92.93
2017-04-05T05:57:53.427Z,92.65
2017-04-05T05:58:53.361Z,92.69
2017-04-05T05:59:53.653Z,92.5
2017-04-05T06:00:53.640Z,92.6
2017-04-05T06:01:53.621Z,92.6
2017-04-05T06:02:53.286Z,92.03
2017-04-05T06:03:53.570Z,92.22
2017-04-05T06:04:53.242Z,92.22
2017-04-05T06:05:53.521Z,92.6
2017-04-05T06:06:53.511Z,92.41
2017-04-05T06:07:53.203Z,92.12
2017-04-05T06:08:53.164Z,92.22
2017-04-05T06:09:53.451Z,92.03
2017-04-05T06:10:53.122Z,92.74
2017-04-05T06:11:53.421Z,92.69
2017-04-05T06:12:53.394Z,92.6
2017-04-05T06:13:53.371Z,92.79
2017-04-05T06:14:53.352Z,92.6
2017-04-05T06:15:53.335Z,92.22
2017-04-05T06:16:53.301Z,91.83
2017-04-05T06:17:53.288Z,91.64
2017-04-05T06:18:53.282Z,92.12
2017-04-05T06:19:53.011Z,92.22
2017-04-05T06:20:53.243Z,92.12
2017-04-05T06:21:53.210Z,91.64
2017-04-05T06:22:53.203Z,91.55
2017-04-05T06:23:53.174Z,92.03
2017-04-05T06:24:53.142Z,91.55
2017-04-05T06:25:53.129Z,91.74
2017-04-05T06:26:53.122Z,91.46
2017-04-05T06:27:53.093Z,91.55
2017-04-05T06:28:53.072Z,91.46
2017-04-05T06:29:53.063Z,90.88
2017-04-05T06:30:53.036Z,91.17
2017-04-05T06:31:53.021Z,91.17
2017-04-05T06:32:52.997Z,90.93
2017-04-05T06:33:52.668Z,90.31
2017-04-05T06:34:52.972Z,91.02
2017-04-05T06:35:52.943Z,91.21
2017-04-05T06:36:52.904Z,91.41
2017-04-05T06:37:52.912Z,91.6
2017-04-05T06:38:52.567Z,92.03
2017-04-05T06:39:52.545Z,91.31
2017-04-05T06:40:52.844Z,91.12
2017-04-05T06:41:52.822Z,91.31
2017-04-05T06:42:52.794Z,90.93
2017-04-05T06:43:52.791Z,91.21
2017-04-05T06:44:52.452Z,91.21
2017-04-05T06:45:52.431Z,91.5
2017-04-05T06:46:52.719Z,91.6
2017-04-05T06:47:52.702Z,92.65
2017-04-05T06:48:52.683Z,92.55
2017-04-05T06:49:52.661Z,92.46
2017-04-05T06:50:52.644Z,92.55
2017-04-05T06:51:52.619Z,93.31
2017-04-05T06:52:52.612Z,93.02
2017-04-05T06:53:52.594Z,93.02
2017-04-05T06:54:52.572Z,93.31
2017-04-05T06:55:52.246Z,93.41
2017-04-05T06:56:52.533Z,93.51
2017-04-05T06:57:52.842Z,93.79
2017-04-05T06:58:52.500Z,94.17
2017-04-05T06:59:52.472Z,94.65
2017-04-05T07:00:52.453Z,95.41
2017-04-05T07:01:52.124Z,95.75
2017-04-05T07:02:52.414Z,96.51
2017-04-05T07:03:52.393Z,97.56
2017-04-05T07:04:52.367Z,97.46
2017-04-05T07:05:52.041Z,97.75
2017-04-05T07:06:52.032Z,97.85
2017-04-05T07:07:52.314Z,97.75
2017-04-05T07:08:52.297Z,97.37
2017-04-05T07:09:51.981Z,97.37
2017-04-05T07:10:51.978Z,96.98
2017-04-05T07:11:52.253Z,97.42
2017-04-05T07:12:51.912Z,97.56
2017-04-05T07:13:52.192Z,98.61
2017-04-05T07:14:52.185Z,98.61
2017-04-05T07:15:51.928Z,98.61
2017-04-05T07:16:51.832Z,98.32
2017-04-05T07:17:52.127Z,98.51
2017-04-05T07:18:52.112Z,98.9
2017-04-05T07:19:52.089Z,99.18
2017-04-05T07:20:52.071Z,98.8
2017-04-05T07:21:52.045Z,98.9
2017-04-05T07:22:52.033Z,99.56
2017-04-05T07:23:52.006Z,99.75
2017-04-05T07:24:51.985Z,99.37
2017-04-05T07:25:51.971Z,99.56
2017-04-05T07:26:51.945Z,99.56
2017-04-05T07:27:51.931Z,99.95
2017-04-05T07:28:51.912Z,99.85
2017-04-05T07:29:51.889Z,99.99
2017-04-05T07:30:51.568Z,99.99
2017-04-05T07:31:51.853Z,99.99
2017-04-05T07:32:51.832Z,99.99
2017-04-05T07:33:51.812Z,99.99
2017-04-05T07:34:51.782Z,99.99
2017-04-05T07:35:51.776Z,99.99
2017-04-05T07:36:51.451Z,99.99
2017-04-05T07:37:51.731Z,99.99
2017-04-05T07:38:51.720Z,99.99
2017-04-05T07:39:51.697Z,99.99
2017-04-05T07:40:51.671Z,99.99
2017-04-05T07:41:51.652Z,99.99
2017-04-05T07:42:51.320Z,99.99
2017-04-05T07:43:51.620Z,99.99
2017-04-05T07:44:51.591Z,99.99
2017-04-05T07:45:51.572Z,99.99
2017-04-05T07:46:51.243Z,99.99
2017-04-05T07:47:51.530Z,99.99
2017-04-05T07:48:51.511Z,99.99
2017-04-05T07:49:51.491Z,99.99
2017-04-05T07:50:51.481Z,99.99
2017-04-05T07:51:51.462Z,99.99
2017-04-05T07:52:51.137Z,99.99
2017-04-05T07:53:51.421Z,99.99
2017-04-05T07:54:51.400Z,99.99
2017-04-05T07:55:51.383Z,99.99
2017-04-05T07:56:51.051Z,99.99
2017-04-05T07:57:51.042Z,99.99
2017-04-05T07:58:51.323Z,99.99
2017-04-05T07:59:51.298Z,99.99
2017-04-05T08:00:50.980Z,99.99
2017-04-05T08:01:51.278Z,99.99
2017-04-05T08:02:51.252Z,99.52
2017-04-05T08:03:50.925Z,99.14
2017-04-05T08:04:50.912Z,99.14
2017-04-05T08:05:51.192Z,99.14
2017-04-05T08:06:51.180Z,99.04
2017-04-05T08:07:51.170Z,98.85
2017-04-05T08:08:51.142Z,97.75
2017-04-05T08:09:50.821Z,97.56
2017-04-05T08:10:50.791Z,96.89
2017-04-05T08:11:50.782Z,96.56
2017-04-05T08:12:51.078Z,95.79
2017-04-05T08:13:51.062Z,95.7
2017-04-05T08:14:51.034Z,94.84
2017-04-05T08:15:51.021Z,94.17
2017-04-05T08:16:51.032Z,94.93
2017-04-05T08:17:50.980Z,95.61
2017-04-05T08:18:50.664Z,95.51
2017-04-05T08:19:50.647Z,95.65
2017-04-05T08:20:50.626Z,96.03
2017-04-05T08:21:50.923Z,96.61
2017-04-05T08:22:50.903Z,96.8
2017-04-05T08:23:50.881Z,97.08
2017-04-05T08:24:50.862Z,97.85
2017-04-05T08:25:50.844Z,97.94
2017-04-05T08:26:50.821Z,98.04
2017-04-05T08:27:50.805Z,98.08
2017-04-05T08:28:50.804Z,98.37
2017-04-05T08:29:50.793Z,99.04
2017-04-05T08:30:50.753Z,99.14
2017-04-05T08:31:50.744Z,99.62
2017-04-05T08:32:50.721Z,99.99
2017-04-05T08:33:50.710Z,99.99
2017-04-05T08:34:50.683Z,99.99
2017-04-05T08:35:50.358Z,99.99
2017-04-05T08:36:50.667Z,99.99
2017-04-05T08:37:50.636Z,99.99
2017-04-05T08:38:50.307Z,99.99
2017-04-05T08:39:50.598Z,99.99
2017-04-05T08:40:50.585Z,99.9
2017-04-05T08:41:50.555Z,99.9
2017-04-05T08:42:50.545Z,99.71
2017-04-05T08:43:50.542Z,99.62
2017-04-05T08:44:50.505Z,99.43
2017-04-05T08:45:50.174Z,99.38
2017-04-05T08:46:50.463Z,99.48
2017-04-05T08:47:50.144Z,99.8
2017-04-05T08:48:50.435Z,99.99
2017-04-05T08:49:50.113Z,99.99
2017-04-05T08:50:50.093Z,99.8
2017-04-05T08:51:50.376Z,99.71
2017-04-05T08:52:50.056Z,99.04
2017-04-05T08:53:50.331Z,98.9
2017-04-05T08:54:50.026Z,98.52
2017-04-05T08:55:50.332Z,98.61
2017-04-05T08:56:50.283Z,98.61
2017-04-05T08:57:50.265Z,98.13
2017-04-05T08:58:50.245Z,97.94
2017-04-05T08:59:50.238Z,97.75
2017-04-05T09:00:50.214Z,98.13
2017-04-05T09:01:50.194Z,97.94
2017-04-05T09:02:50.185Z,98.13
2017-04-05T09:03:50.151Z,98.23
2017-04-05T09:04:49.833Z,98.71
2017-04-05T09:05:49.813Z,98.33
2017-04-05T09:06:50.094Z,97.75
2017-04-05T09:07:50.074Z,97.85
2017-04-05T09:08:50.066Z,97.75
2017-04-05T09:09:49.833Z,97.66
2017-04-05T09:10:50.035Z,98.04
2017-04-05T09:11:49.725Z,97.94
2017-04-05T09:12:49.683Z,97.75
2017-04-05T09:13:49.694Z,98.13
2017-04-05T09:14:49.954Z,97.75
2017-04-05T09:15:49.938Z,97.85
2017-04-05T09:16:49.912Z,97.52
2017-04-05T09:17:49.908Z,96.94
2017-04-05T09:18:49.584Z,96.03
2017-04-05T09:19:49.878Z,94.6
2017-04-05T09:20:49.544Z,93.55
2017-04-05T09:21:49.976Z,93.3
2017-04-05T09:22:49.514Z,91.77
2017-04-05T09:23:49.800Z,91.25
2017-04-05T09:24:49.786Z,90.39
2017-04-05T09:25:49.808Z,89.52
2017-04-05T09:26:49.761Z,88.9
2017-04-05T09:27:49.913Z,88.13
2017-04-05T09:28:49.721Z,86.74
2017-04-05T09:29:49.405Z,85.58
2017-04-05T09:30:49.704Z,85.3
2017-04-05T09:31:49.799Z,85.39
2017-04-05T09:32:49.663Z,85.78
2017-04-05T09:33:49.662Z,84.28
2017-04-05T09:34:49.639Z,82.79
2017-04-05T09:35:49.742Z,81.59
2017-04-05T09:36:49.614Z,81.87
2017-04-05T09:37:49.723Z,80.73
2017-04-05T09:38:49.284Z,80.34
2017-04-05T09:39:49.581Z,80.09
2017-04-05T09:40:49.562Z,80.09
2017-04-05T09:41:49.317Z,79.42
2017-04-05T09:42:49.241Z,78.98
2017-04-05T09:43:49.537Z,77.63
2017-04-05T09:44:49.214Z,77.73
2017-04-05T09:45:49.623Z,77.5
2017-04-05T09:46:49.592Z,77.31
2017-04-05T09:47:49.495Z,77.21
2017-04-05T09:48:49.481Z,77.4
2017-04-05T09:49:49.162Z,77.5
2017-04-05T09:50:49.495Z,76.64
2017-04-05T09:51:49.140Z,77.11
2017-04-05T09:52:49.458Z,76.82
2017-04-05T09:53:49.433Z,76.54
2017-04-05T09:54:49.432Z,76.44
2017-04-05T09:55:49.408Z,76.15
2017-04-05T09:56:49.403Z,75.42
2017-04-05T09:57:49.072Z,75.42
2017-04-05T09:58:49.066Z,75
2017-04-05T09:59:49.052Z,75.13
2017-04-05T10:00:49.373Z,74.94
2017-04-05T10:01:49.344Z,74.02
2017-04-05T10:02:49.325Z,72.09
2017-04-05T10:03:49.315Z,71.58
2017-04-05T10:04:49.310Z,71.71
2017-04-05T10:05:49.299Z,71.42
2017-04-05T10:06:49.298Z,71.23
2017-04-05T10:07:49.284Z,71.52
2017-04-05T10:08:49.273Z,70.78
2017-04-05T10:09:49.256Z,70.5
2017-04-05T10:10:49.237Z,69.73
2017-04-05T10:11:49.226Z,69.95
2017-04-05T10:12:49.214Z,69.85
2017-04-05T10:13:49.202Z,69.22
2017-04-05T10:14:49.193Z,69.47
2017-04-05T10:15:49.182Z,69.57
2017-04-05T10:16:48.866Z,69.24
2017-04-05T10:17:49.165Z,70.5
2017-04-05T10:18:48.852Z,69.82
2017-04-05T10:19:48.829Z,69.28
2017-04-05T10:20:49.135Z,67.74
2017-04-05T10:21:49.116Z,67.93
2017-04-05T10:22:49.104Z,67.58
2017-04-05T10:23:49.101Z,67.49
2017-04-05T10:24:49.104Z,67.13
2017-04-05T10:25:48.775Z,66.85
2017-04-05T10:26:49.064Z,66.01
2017-04-05T10:27:49.073Z,66.69
2017-04-05T10:28:49.044Z,65.98
2017-04-05T10:29:48.724Z,67.29
2017-04-05T10:30:48.725Z,68.06
2017-04-05T10:31:49.013Z,67.87
2017-04-05T10:32:48.702Z,68.68
2017-04-05T10:33:48.692Z,66.88
2017-04-05T10:34:48.989Z,66.01
2017-04-05T10:35:48.982Z,66.07
2017-04-05T10:36:48.653Z,66.27
2017-04-05T10:37:48.644Z,66.85
2017-04-05T10:38:48.930Z,67.55
2017-04-05T10:39:48.614Z,68.8
2017-04-05T10:40:48.613Z,69.44
2017-04-05T10:41:48.908Z,69.47
2017-04-05T10:42:48.892Z,69.47
2017-04-05T10:43:48.893Z,68.8
2017-04-05T10:44:48.880Z,68.8
2017-04-05T10:45:48.853Z,69.53
2017-04-05T10:46:48.564Z,69.44
2017-04-05T10:47:48.834Z,69.06
2017-04-05T10:48:48.523Z,69.92
2017-04-05T10:49:48.503Z,69.34
2017-04-05T10:50:48.503Z,69.09
2017-04-05T10:51:48.795Z,68.67
2017-04-05T10:52:48.773Z,68.38
2017-04-05T10:53:48.762Z,68.22
2017-04-05T10:54:48.762Z,67.83
2017-04-05T10:55:48.744Z,68.16
2017-04-05T10:56:48.431Z,67.77
2017-04-05T10:57:48.713Z,67.68
2017-04-05T10:58:48.408Z,67.49
2017-04-05T10:59:48.696Z,67.49
2017-04-05T11:00:48.383Z,68.26
2017-04-05T11:01:48.682Z,67.61
2017-04-05T11:02:48.356Z,67.29
2017-04-05T11:03:48.658Z,67.19
2017-04-05T11:04:48.344Z,67.35
2017-04-05T11:05:48.323Z,67.93
2017-04-05T11:06:48.611Z,67.65
2017-04-05T11:07:48.595Z,67.55
2017-04-05T11:08:48.594Z,66.88
2017-04-05T11:09:48.572Z,66.52
2017-04-05T11:10:48.258Z,67.45
2017-04-05T11:11:48.561Z,68.38
2017-04-05T11:12:48.547Z,68.83
2017-04-05T11:13:48.226Z,69.21
2017-04-05T11:14:48.515Z,69.4
2017-04-05T11:15:48.503Z,70.23
2017-04-05T11:16:48.494Z,70.72
2017-04-05T11:17:48.476Z,71.67
2017-04-05T11:18:48.466Z,72.02
2017-04-05T11:19:48.454Z,72.95
2017-04-05T11:20:48.146Z,72.95
2017-04-05T11:21:48.437Z,73.14
2017-04-05T11:22:48.126Z,73.04
2017-04-05T11:23:48.416Z,73.2
2017-04-05T11:24:48.084Z,73.24
2017-04-05T11:25:48.374Z,72.85
2017-04-05T11:26:48.363Z,72.18
2017-04-05T11:27:48.347Z,72.6
2017-04-05T11:28:48.347Z,70.81
2017-04-05T11:29:48.017Z,70.56
2017-04-05T11:30:48.301Z,70.65
2017-04-05T11:31:48.302Z,69.31
2017-04-05T11:32:48.285Z,68.96
2017-04-05T11:33:48.265Z,67.74
2017-04-05T11:34:48.265Z,67
2017-04-05T11:35:48.239Z,65.4
2017-04-05T11:36:48.226Z,65.94
2017-04-05T11:37:48.239Z,65.85
2017-04-05T11:38:48.197Z,66.14
2017-04-05T11:39:48.312Z,66.46
2017-04-05T11:40:48.173Z,65.5
2017-04-05T11:41:48.162Z,65.66
2017-04-05T11:42:48.156Z,66.04
2017-04-05T11:43:48.217Z,66.78
2017-04-05T11:44:48.137Z,68.19
2017-04-05T11:45:48.207Z,69.89
2017-04-05T11:46:47.787Z,70.62
2017-04-05T11:47:47.784Z,69.85
2017-04-05T11:48:47.771Z,69.37
2017-04-05T11:49:48.067Z,69.53
2017-04-05T11:50:48.042Z,69.43
2017-04-05T11:51:48.044Z,70.36
2017-04-05T11:52:48.024Z,70.45
2017-04-05T11:53:47.761Z,70.64
2017-04-05T11:54:47.997Z,70.49
2017-04-05T11:55:47.789Z,70.39
2017-04-05T11:56:47.657Z,68.25
2017-04-05T11:57:47.725Z,67.29
2017-04-05T11:58:47.939Z,67.38
2017-04-05T11:59:47.957Z,67.74
2017-04-05T12:00:47.917Z,67.35
2017-04-05T12:01:47.897Z,67.61
2017-04-05T12:02:47.951Z,67.41
2017-04-05T12:03:47.933Z,67.45
2017-04-05T12:04:47.854Z,67.22
2017-04-05T12:05:47.898Z,67.16
2017-04-05T12:06:47.854Z,66.91
2017-04-05T12:07:47.874Z,66.81
2017-04-05T12:08:47.790Z,67.25
2017-04-05T12:09:47.792Z,66.77
2017-04-05T12:10:47.835Z,67.35
2017-04-05T12:11:47.457Z,66.49
2017-04-05T12:12:47.753Z,66.26
2017-04-05T12:13:47.785Z,66.64
2017-04-05T12:14:47.418Z,67.57
2017-04-05T12:15:47.696Z,67.41
2017-04-05T12:16:47.685Z,66.77
2017-04-05T12:17:47.369Z,66.04
2017-04-05T12:18:47.356Z,65.4
2017-04-05T12:19:47.646Z,64.28
2017-04-05T12:20:47.636Z,62.67
2017-04-05T12:21:47.629Z,62.67
2017-04-05T12:22:47.611Z,61.52
2017-04-05T12:23:47.293Z,61.9
2017-04-05T12:24:47.584Z,63.22
2017-04-05T12:25:47.561Z,63.95
2017-04-05T12:26:47.554Z,63.38
2017-04-05T12:27:47.236Z,64.22
2017-04-05T12:28:47.540Z,64.5
2017-04-05T12:29:47.514Z,65.84
2017-04-05T12:30:47.509Z,66
2017-04-05T12:31:47.495Z,67.45
2017-04-05T12:32:47.481Z,67.45
2017-04-05T12:33:47.159Z,67.51
2017-04-05T12:34:47.448Z,67.51
2017-04-05T12:35:47.433Z,67.09
2017-04-05T12:36:47.116Z,67.38
2017-04-05T12:37:47.093Z,66.74
2017-04-05T12:38:47.392Z,67.19
2017-04-05T12:39:47.064Z,67.41
2017-04-05T12:40:47.053Z,66.84
2017-04-05T12:41:47.337Z,67.41
2017-04-05T12:44:47.303Z,64.47
2017-04-05T12:45:47.290Z,63.86
2017-04-05T12:46:47.282Z,63.76
2017-04-05T12:47:47.259Z,64.63
2017-04-05T12:48:46.939Z,64.59
2017-04-05T12:49:46.929Z,65.17
2017-04-05T12:50:46.903Z,65.17
2017-04-05T12:51:47.204Z,64.98
2017-04-05T12:52:47.195Z,64.89
2017-04-05T12:53:47.172Z,65.78
2017-04-05T12:54:47.177Z,64.85
2017-04-05T12:55:47.150Z,63.89
2017-04-05T12:56:46.823Z,63.89